createdAt,value
2017-12-06T00:01:56.026Z,7.30
2017-12-06T00:04:23.584Z,7.97
2017-12-06T00:06:51.173Z,9.27
2017-12-06T00:09:18.724Z,6.37
2017-12-06T00:11:47.100Z,6.97
2017-12-06T00:14:20.505Z,6.78
2017-12-06T00:16:48.052Z,7.30
2017-12-06T00:19:15.607Z,7.43
2017-12-06T00:21:43.145Z,8.15
2017-12-06T00:24:11.430Z,7.03
2017-12-06T00:26:38.969Z,7.15
2017-12-06T00:29:07.261Z,7.60
2017-12-06T00:31:34.806Z,8.43
2017-12-06T00:34:03.104Z,8.57
2017-12-06T00:36:30.663Z,8.13
2017-12-06T00:38:58.188Z,8.55
2017-12-06T00:41:26.509Z,8.88
2017-12-06T00:43:54.057Z,7.90
2017-12-06T00:46:21.588Z,10.18
2017-12-06T00:48:49.925Z,8.82
2017-12-06T00:51:17.466Z,9.15
2017-12-06T00:53:44.992Z,9.70
2017-12-06T00:56:13.297Z,9.50
2017-12-06T00:58:40.822Z,9.30
2017-12-06T01:01:09.139Z,9.02
2017-12-06T01:03:36.691Z,9.85
2017-12-06T01:06:04.237Z,8.43
2017-12-06T01:08:31.767Z,10.05
2017-12-06T01:10:59.312Z,9.45
2017-12-06T01:13:26.858Z,9.77
2017-12-06T01:15:54.390Z,10.50
2017-12-06T01:18:21.943Z,10.23
2017-12-06T01:20:49.481Z,10.75
2017-12-06T01:23:17.797Z,10.02
2017-12-06T01:25:45.358Z,10.50
2017-12-06T01:28:12.917Z,12.07
2017-12-06T01:30:40.442Z,11.32
2017-12-06T01:33:08.741Z,11.00
2017-12-06T01:35:36.294Z,11.65
2017-12-06T01:38:03.836Z,12.25
2017-12-06T01:40:32.134Z,11.20
2017-12-06T01:42:59.681Z,10.88
2017-12-06T01:45:28.009Z,10.90
2017-12-06T01:47:55.561Z,11.25
2017-12-06T01:50:23.097Z,10.30
2017-12-06T01:52:50.652Z,11.00
2017-12-06T01:55:18.204Z,11.02
2017-12-06T01:57:45.785Z,10.35
2017-12-06T02:00:13.333Z,11.15
2017-12-06T02:02:40.906Z,10.68
2017-12-06T02:05:08.445Z,10.80
2017-12-06T02:07:35.990Z,11.43
2017-12-06T02:10:04.299Z,10.15
2017-12-06T02:12:31.842Z,10.55
2017-12-06T02:14:59.394Z,10.70
2017-12-06T02:17:26.916Z,11.43
2017-12-06T02:19:54.491Z,12.32
2017-12-06T02:22:22.020Z,11.25
2017-12-06T02:24:50.333Z,10.40
2017-12-06T02:27:17.865Z,10.57
2017-12-06T02:29:46.196Z,11.65
2017-12-06T02:32:13.975Z,11.55
2017-12-06T02:34:41.522Z,11.45
2017-12-06T02:37:09.065Z,10.05
2017-12-06T02:39:48.388Z,10.57
2017-12-06T02:42:27.782Z,10.90
2017-12-06T02:45:07.951Z,10.43
2017-12-06T02:47:36.271Z,10.25
2017-12-06T02:50:03.797Z,10.07
2017-12-06T02:52:32.109Z,10.65
2017-12-06T02:54:59.636Z,10.20
2017-12-06T02:57:27.222Z,10.35
2017-12-06T02:59:54.762Z,12.10
2017-12-06T03:02:22.308Z,11.27
2017-12-06T03:04:50.608Z,10.48
2017-12-06T03:07:18.150Z,9.60
2017-12-06T03:09:45.676Z,8.95
2017-12-06T03:12:13.206Z,9.50
2017-12-06T03:14:40.777Z,9.00
2017-12-06T03:17:08.349Z,10.52
2017-12-06T03:19:35.869Z,9.80
2017-12-06T03:22:03.401Z,9.90
2017-12-06T03:24:31.713Z,10.20
2017-12-06T03:26:59.246Z,10.35
2017-12-06T03:29:26.804Z,9.00
2017-12-06T03:31:54.329Z,8.95
2017-12-06T03:34:21.861Z,6.47
2017-12-06T03:36:49.414Z,7.07
2017-12-06T03:39:16.957Z,9.00
2017-12-06T03:41:44.505Z,8.52
2017-12-06T03:44:12.025Z,9.65
2017-12-06T03:46:39.569Z,8.90
2017-12-06T03:49:07.089Z,8.20
2017-12-06T03:51:34.653Z,9.15
2017-12-06T03:54:02.178Z,8.07
2017-12-06T03:56:30.483Z,9.15
2017-12-06T03:58:58.013Z,9.38
2017-12-06T04:01:26.320Z,7.55
2017-12-06T04:03:53.835Z,8.05
2017-12-06T04:06:21.389Z,8.10
2017-12-06T04:08:48.908Z,7.70
2017-12-06T04:11:16.514Z,7.50
2017-12-06T04:13:44.053Z,7.85
2017-12-06T04:16:11.584Z,8.30
2017-12-06T04:18:39.256Z,8.65
2017-12-06T04:21:06.786Z,8.98
2017-12-06T04:23:35.114Z,9.20
2017-12-06T04:26:02.749Z,7.68
2017-12-06T04:28:30.290Z,9.20
2017-12-06T04:30:57.817Z,6.95
2017-12-06T04:33:25.356Z,6.78
2017-12-06T04:35:52.888Z,6.32
2017-12-06T04:38:20.439Z,6.53
2017-12-06T04:40:47.973Z,6.03
2017-12-06T04:43:16.265Z,6.40
2017-12-06T04:45:43.859Z,5.87
2017-12-06T04:48:11.385Z,6.35
2017-12-06T04:50:38.932Z,5.82
2017-12-06T04:53:07.241Z,6.80
2017-12-06T04:55:34.804Z,6.45
2017-12-06T04:58:02.364Z,6.25
2017-12-06T05:00:29.914Z,5.78
2017-12-06T05:02:57.441Z,5.70
2017-12-06T05:05:24.984Z,5.25
2017-12-06T05:07:52.540Z,5.80
2017-12-06T05:10:20.884Z,5.97
2017-12-06T05:12:48.432Z,5.97
2017-12-06T05:15:15.991Z,6.32
2017-12-06T05:17:44.372Z,5.70
2017-12-06T05:20:11.924Z,6.60
2017-12-06T05:22:39.461Z,7.35
2017-12-06T05:25:07.003Z,7.03
2017-12-06T05:27:35.334Z,6.90
2017-12-06T05:30:02.857Z,6.82
2017-12-06T05:32:30.374Z,7.97
2017-12-06T05:34:58.690Z,8.02
2017-12-06T05:37:26.221Z,8.68
2017-12-06T05:39:53.769Z,8.15
2017-12-06T05:42:21.293Z,8.18
2017-12-06T05:44:48.854Z,8.70
2017-12-06T05:47:16.386Z,8.38
2017-12-06T05:49:43.935Z,7.60
2017-12-06T05:52:12.346Z,8.05
2017-12-06T05:54:39.909Z,8.25
2017-12-06T05:57:07.434Z,8.93
2017-12-06T05:59:35.846Z,9.15
2017-12-06T06:02:03.386Z,8.02
2017-12-06T06:04:30.934Z,9.10
2017-12-06T06:06:58.479Z,8.77
2017-12-06T06:09:29.833Z,8.02
2017-12-06T06:11:58.138Z,9.02
2017-12-06T06:14:26.492Z,8.40
2017-12-06T06:16:54.809Z,8.40
2017-12-06T06:19:22.337Z,8.60
2017-12-06T06:21:50.650Z,8.05
2017-12-06T06:24:18.180Z,8.30
2017-12-06T06:26:45.741Z,8.52
2017-12-06T06:29:13.265Z,7.45
2017-12-06T06:31:40.832Z,7.20
2017-12-06T06:34:09.130Z,7.62
2017-12-06T06:36:37.481Z,8.65
2017-12-06T06:39:05.798Z,7.70
2017-12-06T06:41:33.357Z,8.48
2017-12-06T06:44:01.635Z,7.50
2017-12-06T06:46:29.279Z,8.18
2017-12-06T06:48:56.809Z,8.25
2017-12-06T06:51:25.098Z,9.27
2017-12-06T06:53:52.641Z,7.82
2017-12-06T06:56:20.950Z,9.40
2017-12-06T06:58:48.502Z,8.35
2017-12-06T07:01:16.246Z,8.52
2017-12-06T07:03:44.562Z,7.35
2017-12-06T07:06:12.106Z,7.50
2017-12-06T07:08:39.673Z,8.13
2017-12-06T07:11:07.197Z,6.62
2017-12-06T07:13:35.523Z,9.02
2017-12-06T07:16:03.065Z,7.40
2017-12-06T07:18:30.608Z,8.68
2017-12-06T07:20:58.148Z,7.03
2017-12-06T07:23:26.481Z,7.30
2017-12-06T07:25:54.042Z,7.50
2017-12-06T07:28:21.600Z,7.32
2017-12-06T07:30:49.135Z,7.20
2017-12-06T07:33:16.669Z,7.22
2017-12-06T07:35:44.984Z,6.50
2017-12-06T07:38:12.517Z,6.37
2017-12-06T07:40:40.074Z,5.45
2017-12-06T07:43:08.371Z,5.90
2017-12-06T07:45:35.916Z,7.32
2017-12-06T07:48:03.452Z,7.18
2017-12-06T07:50:31.764Z,6.87
2017-12-06T07:52:59.315Z,7.70
2017-12-06T07:55:26.877Z,7.25
2017-12-06T07:57:54.433Z,7.22
2017-12-06T08:00:21.980Z,7.95
2017-12-06T08:02:50.290Z,7.20
2017-12-06T08:05:17.821Z,7.45
2017-12-06T08:07:45.368Z,7.40
2017-12-06T08:10:12.895Z,6.95
2017-12-06T08:12:40.449Z,7.18
2017-12-06T08:15:07.976Z,8.07
2017-12-06T08:17:35.529Z,8.40
2017-12-06T08:20:03.060Z,8.45
2017-12-06T08:22:30.617Z,9.02
2017-12-06T08:24:58.149Z,8.15
2017-12-06T08:27:25.705Z,10.38
2017-12-06T08:29:54.785Z,10.27
2017-12-06T08:32:22.318Z,8.57
2017-12-06T08:34:49.880Z,10.82
2017-12-06T08:37:17.408Z,10.38
2017-12-06T08:39:45.728Z,9.38
2017-12-06T08:42:13.275Z,8.98
2017-12-06T08:44:40.829Z,10.52
2017-12-06T08:47:08.374Z,8.70
2017-12-06T08:49:35.921Z,9.05
2017-12-06T08:52:04.224Z,9.13
2017-12-06T08:54:31.864Z,10.68
2017-12-06T08:56:59.427Z,9.20
2017-12-06T08:59:27.256Z,9.75
2017-12-06T09:01:54.785Z,11.65
2017-12-06T09:04:22.341Z,9.50
2017-12-06T09:06:49.882Z,8.75
2017-12-06T09:09:17.412Z,9.13
2017-12-06T09:11:44.963Z,9.63
2017-12-06T09:14:12.492Z,9.90
2017-12-06T09:16:41.573Z,8.80
2017-12-06T09:19:09.107Z,9.77
2017-12-06T09:21:36.668Z,10.05
2017-12-06T09:24:04.201Z,9.60
2017-12-06T09:26:31.752Z,9.60
2017-12-06T09:29:00.076Z,11.98
2017-12-06T09:31:27.642Z,9.82
2017-12-06T09:33:55.172Z,8.73
2017-12-06T09:36:22.720Z,8.48
2017-12-06T09:38:50.241Z,8.13
2017-12-06T09:41:17.777Z,8.68
2017-12-06T09:43:45.309Z,10.60
2017-12-06T09:46:12.860Z,9.88
2017-12-06T09:48:40.384Z,10.18
2017-12-06T09:51:08.706Z,10.60
2017-12-06T09:53:36.249Z,9.80
2017-12-06T09:56:03.778Z,9.60
2017-12-06T09:58:31.328Z,8.65
2017-12-06T10:00:58.886Z,10.05
2017-12-06T10:03:26.438Z,9.85
2017-12-06T10:05:53.999Z,9.25
2017-12-06T10:08:21.522Z,9.93
2017-12-06T10:10:49.128Z,10.10
2017-12-06T10:13:16.658Z,9.32
2017-12-06T10:15:44.202Z,9.23
2017-12-06T10:18:11.749Z,8.75
2017-12-06T10:20:39.279Z,9.50
2017-12-06T10:23:07.594Z,9.07
2017-12-06T10:25:35.164Z,10.02
2017-12-06T10:28:02.704Z,10.05
2017-12-06T10:30:30.258Z,9.48
2017-12-06T10:32:57.788Z,9.10
2017-12-06T10:35:25.348Z,9.88
2017-12-06T10:37:52.873Z,8.85
2017-12-06T10:40:20.421Z,10.68
2017-12-06T10:42:47.996Z,9.52
2017-12-06T10:45:15.546Z,9.40
2017-12-06T10:47:43.090Z,9.85
2017-12-06T10:50:10.629Z,9.57
2017-12-06T10:52:39.284Z,8.85
2017-12-06T10:55:06.843Z,10.73
2017-12-06T10:57:34.388Z,8.82
2017-12-06T11:00:01.934Z,9.70
2017-12-06T11:02:29.467Z,9.65
2017-12-06T11:04:57.026Z,9.85
2017-12-06T11:07:24.576Z,10.73
2017-12-06T11:09:52.889Z,9.98
2017-12-06T11:12:20.431Z,9.75
2017-12-06T11:14:47.958Z,9.73
2017-12-06T11:17:16.401Z,9.18
2017-12-06T11:19:43.952Z,9.18
2017-12-06T11:22:11.510Z,10.10
2017-12-06T11:24:39.043Z,9.68
2017-12-06T11:27:06.671Z,9.45
2017-12-06T11:29:34.189Z,10.30
2017-12-06T11:32:01.764Z,10.00
2017-12-06T11:34:29.309Z,8.82
2017-12-06T11:36:56.854Z,9.73
2017-12-06T11:39:24.406Z,9.80
2017-12-06T11:41:52.002Z,10.70
2017-12-06T11:44:19.560Z,9.50
2017-12-06T11:46:47.093Z,9.35
2017-12-06T11:49:14.655Z,11.32
2017-12-06T11:51:42.169Z,9.00
2017-12-06T11:54:09.725Z,10.40
2017-12-06T11:56:37.257Z,10.23
2017-12-06T11:59:04.806Z,9.77
2017-12-06T12:01:32.357Z,9.70
2017-12-06T12:03:59.895Z,10.65
2017-12-06T12:06:27.441Z,8.60
2017-12-06T12:08:55.729Z,10.30
2017-12-06T12:11:23.281Z,8.35
2017-12-06T12:13:50.828Z,8.48
2017-12-06T12:16:19.152Z,8.88
2017-12-06T12:18:46.717Z,9.65
2017-12-06T12:21:14.279Z,9.43
2017-12-06T12:23:41.808Z,9.88
2017-12-06T12:26:09.366Z,9.85
2017-12-06T12:28:36.924Z,10.93
2017-12-06T12:31:04.457Z,10.48
2017-12-06T12:33:32.020Z,10.63
2017-12-06T12:35:59.557Z,10.18
2017-12-06T12:38:27.871Z,8.25
2017-12-06T12:40:55.400Z,9.85
2017-12-06T12:43:23.729Z,9.60
2017-12-06T12:45:51.986Z,9.77
2017-12-06T12:48:19.529Z,9.48
2017-12-06T12:50:47.065Z,10.80
2017-12-06T12:53:15.433Z,8.27
2017-12-06T12:55:43.747Z,11.38
2017-12-06T12:58:11.295Z,9.20
2017-12-06T13:00:38.821Z,9.65
2017-12-06T13:03:06.388Z,8.98
2017-12-06T13:05:35.457Z,10.13
2017-12-06T13:08:03.009Z,9.00
2017-12-06T13:10:30.555Z,9.18
2017-12-06T13:12:58.105Z,9.35
2017-12-06T13:15:26.183Z,9.13
2017-12-06T13:17:53.743Z,9.80
2017-12-06T13:20:21.270Z,9.98
2017-12-06T13:22:48.824Z,9.05
2017-12-06T13:25:16.397Z,8.73
2017-12-06T13:27:43.917Z,8.68
2017-12-06T13:30:12.249Z,9.40
2017-12-06T13:32:39.782Z,7.93
2017-12-06T13:35:07.401Z,8.50
2017-12-06T13:37:34.994Z,9.77
2017-12-06T13:40:03.308Z,7.97
2017-12-06T13:42:30.852Z,8.63
2017-12-06T13:44:58.392Z,6.87
2017-12-06T13:47:25.977Z,8.43
2017-12-06T13:49:53.501Z,8.10
2017-12-06T13:52:21.828Z,8.02
2017-12-06T13:54:49.350Z,8.98
2017-12-06T13:57:17.674Z,9.00
2017-12-06T13:59:45.209Z,8.88
2017-12-06T14:02:12.794Z,8.80
2017-12-06T14:04:40.320Z,8.15
2017-12-06T14:07:07.878Z,9.73
2017-12-06T14:09:35.420Z,9.00
2017-12-06T14:12:03.733Z,8.68
2017-12-06T14:14:31.290Z,9.25
2017-12-06T14:16:58.849Z,8.55
2017-12-06T14:19:26.397Z,9.43
2017-12-06T14:21:53.990Z,8.93
2017-12-06T14:24:21.528Z,8.13
2017-12-06T14:26:49.201Z,8.57
2017-12-06T14:29:16.769Z,8.15
2017-12-06T14:31:44.325Z,7.10
2017-12-06T14:34:11.857Z,7.55
2017-12-06T14:36:39.412Z,7.32
2017-12-06T14:39:06.948Z,8.07
2017-12-06T14:41:35.266Z,8.15
2017-12-06T14:44:02.812Z,7.53
2017-12-06T14:46:30.489Z,7.70
2017-12-06T14:48:58.022Z,6.72
2017-12-06T14:51:26.335Z,7.25
2017-12-06T14:53:53.871Z,6.45
2017-12-06T14:56:21.420Z,4.37
2017-12-06T14:58:49.730Z,7.20
2017-12-06T15:01:17.280Z,7.28
2017-12-06T15:03:44.801Z,7.35
2017-12-06T15:06:13.106Z,6.25
2017-12-06T15:08:40.679Z,7.68
2017-12-06T15:11:08.215Z,8.10
2017-12-06T15:13:35.786Z,7.45
2017-12-06T15:16:03.340Z,6.72
2017-12-06T15:18:31.120Z,8.35
2017-12-06T15:20:58.648Z,7.20
2017-12-06T15:23:26.192Z,6.20
2017-12-06T15:25:54.612Z,6.82
2017-12-06T15:28:22.167Z,6.45
2017-12-06T15:30:49.688Z,6.75
2017-12-06T15:33:18.006Z,8.50
2017-12-06T15:35:45.544Z,6.80
2017-12-06T15:38:14.296Z,7.15
2017-12-06T15:40:41.857Z,7.25
2017-12-06T15:43:09.409Z,8.20
2017-12-06T15:45:37.116Z,8.43
2017-12-06T15:48:04.654Z,6.70
2017-12-06T15:50:32.982Z,7.05
2017-12-06T15:53:00.521Z,7.05
2017-12-06T15:55:28.079Z,9.13
2017-12-06T15:57:55.613Z,8.32
2017-12-06T16:00:23.184Z,8.18
2017-12-06T16:02:50.704Z,6.60
2017-12-06T16:05:18.242Z,8.00
2017-12-06T16:07:45.784Z,9.10
2017-12-06T16:10:14.110Z,7.72
2017-12-06T16:12:41.677Z,7.62
2017-12-06T16:15:09.224Z,8.40
2017-12-06T16:17:36.781Z,10.32
2017-12-06T16:20:04.318Z,11.25
2017-12-06T16:22:31.905Z,10.18
2017-12-06T16:24:59.436Z,8.52
2017-12-06T16:27:27.004Z,9.55
2017-12-06T16:29:54.567Z,8.18
2017-12-06T16:32:22.105Z,8.40
2017-12-06T16:35:01.622Z,8.90
2017-12-06T16:37:29.971Z,8.65
2017-12-06T16:39:57.540Z,7.30
2017-12-06T16:42:25.059Z,9.27
2017-12-06T16:44:52.634Z,7.47
2017-12-06T16:47:20.163Z,8.27
2017-12-06T16:49:47.719Z,8.10
2017-12-06T16:52:16.004Z,7.57
2017-12-06T16:54:43.560Z,7.47
2017-12-06T16:57:11.096Z,8.75
2017-12-06T16:59:38.659Z,7.78
2017-12-06T17:02:06.274Z,6.60
2017-12-06T17:04:33.789Z,8.15
2017-12-06T17:07:01.370Z,7.30
2017-12-06T17:09:28.937Z,6.40
2017-12-06T17:11:56.475Z,5.62
2017-12-06T17:14:24.041Z,6.28
2017-12-06T17:16:51.585Z,7.80
2017-12-06T17:19:19.131Z,7.75
2017-12-06T17:21:46.690Z,7.30
2017-12-06T17:24:14.237Z,6.70
2017-12-06T17:26:41.787Z,6.15
2017-12-06T17:29:22.089Z,7.75
2017-12-06T17:31:49.666Z,7.25
2017-12-06T17:34:18.087Z,7.90
2017-12-06T17:36:45.664Z,8.23
2017-12-06T17:39:13.215Z,7.95
2017-12-06T17:41:41.807Z,8.93
2017-12-06T17:44:09.375Z,7.35
2017-12-06T17:46:36.931Z,8.60
2017-12-06T17:49:04.466Z,8.30
2017-12-06T17:51:32.040Z,8.35
2017-12-06T17:53:59.577Z,8.38
2017-12-06T17:56:27.097Z,8.88
2017-12-06T17:58:54.684Z,9.05
2017-12-06T18:01:22.217Z,8.95
2017-12-06T18:03:49.757Z,8.35
2017-12-06T18:06:17.292Z,8.68
2017-12-06T18:08:44.858Z,7.68
2017-12-06T18:11:12.393Z,9.27
2017-12-06T18:13:39.949Z,9.52
2017-12-06T18:16:07.482Z,7.82
2017-12-06T18:18:35.794Z,9.65
2017-12-06T18:21:03.393Z,7.22
2017-12-06T18:23:30.941Z,8.45
2017-12-06T18:25:58.504Z,8.75
2017-12-06T18:28:26.044Z,8.18
2017-12-06T18:30:54.357Z,8.18
2017-12-06T18:33:21.908Z,8.15
2017-12-06T18:35:49.451Z,8.50
2017-12-06T18:38:17.006Z,8.25
2017-12-06T18:40:46.634Z,9.65
2017-12-06T18:43:14.164Z,9.65
2017-12-06T18:45:41.717Z,8.85
2017-12-06T18:48:09.268Z,8.52
2017-12-06T18:50:37.597Z,8.45
2017-12-06T18:53:05.149Z,8.20
2017-12-06T18:55:32.717Z,8.10
2017-12-06T18:58:00.266Z,8.27
2017-12-06T19:00:27.802Z,6.07
2017-12-06T19:02:55.354Z,7.80
2017-12-06T19:05:22.899Z,8.18
2017-12-06T19:07:50.436Z,7.90
2017-12-06T19:10:18.753Z,8.32
2017-12-06T19:12:46.319Z,8.00
2017-12-06T19:15:13.864Z,7.90
2017-12-06T19:17:41.437Z,7.85
2017-12-06T19:20:08.990Z,7.22
2017-12-06T19:22:36.530Z,7.30
2017-12-06T19:25:04.099Z,7.10
2017-12-06T19:27:31.638Z,6.40
2017-12-06T19:29:59.956Z,7.82
2017-12-06T19:32:27.486Z,8.15
2017-12-06T19:34:55.037Z,6.68
2017-12-06T19:37:22.578Z,6.20
2017-12-06T19:39:50.120Z,6.35
2017-12-06T19:42:17.656Z,6.70
2017-12-06T19:44:45.243Z,8.55
2017-12-06T19:47:12.805Z,8.00
2017-12-06T19:49:40.354Z,9.80
2017-12-06T19:52:07.922Z,7.93
2017-12-06T19:54:35.471Z,7.97
2017-12-06T19:57:03.063Z,7.87
2017-12-06T19:59:31.835Z,6.85
2017-12-06T20:01:59.386Z,9.00
2017-12-06T20:04:26.967Z,7.50
2017-12-06T20:06:54.553Z,7.65
2017-12-06T20:09:22.089Z,9.50
2017-12-06T20:11:49.610Z,8.60
2017-12-06T20:14:17.949Z,8.43
2017-12-06T20:16:45.559Z,10.20
2017-12-06T20:19:13.881Z,7.68
2017-12-06T20:21:41.421Z,8.60
2017-12-06T20:24:08.985Z,9.07
2017-12-06T20:26:36.516Z,9.80
2017-12-06T20:29:04.825Z,10.45
2017-12-06T20:31:32.359Z,10.80
2017-12-06T20:34:00.093Z,10.05
2017-12-06T20:36:28.408Z,8.27
2017-12-06T20:38:55.964Z,9.00
2017-12-06T20:41:23.501Z,9.77
2017-12-06T20:43:51.845Z,9.55
2017-12-06T20:46:19.418Z,10.50
2017-12-06T20:48:46.962Z,9.50
2017-12-06T20:51:14.521Z,10.30
2017-12-06T20:53:42.085Z,11.05
2017-12-06T20:56:09.648Z,10.35
2017-12-06T20:58:37.174Z,9.65
2017-12-06T21:01:04.746Z,11.23
2017-12-06T21:03:32.300Z,10.73
2017-12-06T21:05:59.881Z,9.50
2017-12-06T21:08:27.417Z,9.70
2017-12-06T21:10:54.980Z,10.32
2017-12-06T21:13:22.557Z,11.32
2017-12-06T21:15:50.120Z,8.60
2017-12-06T21:18:17.653Z,9.02
2017-12-06T21:20:45.289Z,9.85
2017-12-06T21:23:13.603Z,10.38
2017-12-06T21:25:41.165Z,10.55
2017-12-06T21:28:08.693Z,9.73
2017-12-06T21:30:36.256Z,10.00
2017-12-06T21:33:04.566Z,11.30
2017-12-06T21:35:32.166Z,12.65
2017-12-06T21:38:00.473Z,12.35
2017-12-06T21:40:28.026Z,15.13
2017-12-06T21:42:55.587Z,13.18
2017-12-06T21:45:23.149Z,18.60
2017-12-06T21:47:51.501Z,14.23
2017-12-06T21:50:19.025Z,15.77
2017-12-06T21:52:46.651Z,16.50
2017-12-06T21:55:14.939Z,13.50
2017-12-06T21:57:42.502Z,14.60
2017-12-06T22:00:10.036Z,12.90
2017-12-06T22:02:38.357Z,12.73
2017-12-06T22:05:05.908Z,15.20
2017-12-06T22:07:35.275Z,14.48
2017-12-06T22:10:02.825Z,13.62
2017-12-06T22:12:30.397Z,18.23
2017-12-06T22:14:57.936Z,15.60
2017-12-06T22:17:25.492Z,16.92
2017-12-06T22:19:53.210Z,15.75
2017-12-06T22:22:21.549Z,14.30
2017-12-06T22:24:49.852Z,17.90
2017-12-06T22:27:17.420Z,18.58
2017-12-06T22:29:44.953Z,17.20
2017-12-06T22:32:12.493Z,16.95
2017-12-06T22:34:40.057Z,18.55
2017-12-06T22:37:07.590Z,18.48
2017-12-06T22:39:35.907Z,22.17
2017-12-06T22:42:03.446Z,20.45
2017-12-06T22:44:30.995Z,19.17
2017-12-06T22:46:59.299Z,19.80
2017-12-06T22:49:26.844Z,20.50
2017-12-06T22:51:54.394Z,19.15
2017-12-06T22:54:21.940Z,17.45
2017-12-06T22:56:50.269Z,20.40
2017-12-06T22:59:17.804Z,21.80
2017-12-06T23:01:45.358Z,22.85
2017-12-06T23:04:12.893Z,25.15
2017-12-06T23:06:40.445Z,23.12
2017-12-06T23:09:07.998Z,21.42
2017-12-06T23:11:35.555Z,24.58
2017-12-06T23:14:03.089Z,20.27
2017-12-06T23:16:31.405Z,22.13
2017-12-06T23:18:58.947Z,21.67
2017-12-06T23:21:26.505Z,23.05
2017-12-06T23:23:54.066Z,22.98
2017-12-06T23:26:21.638Z,21.27
2017-12-06T23:28:49.180Z,20.80
2017-12-06T23:31:16.720Z,19.15
2017-12-06T23:33:45.040Z,17.73
2017-12-06T23:36:12.581Z,20.73
2017-12-06T23:38:40.142Z,22.33
2017-12-06T23:41:07.677Z,19.77
2017-12-06T23:43:36.042Z,20.37
2017-12-06T23:46:03.568Z,21.20
2017-12-06T23:48:31.105Z,19.30
2017-12-06T23:50:58.662Z,19.48
2017-12-06T23:53:26.208Z,21.83
2017-12-06T23:55:53.772Z,19.40
2017-12-06T23:58:21.316Z,18.77
